Time;durP1;ratioP1;P1;durP2;ratioP2;P2;SDS_P1;SDS_P2;PMS_P1;PMS_P2;Temp;Humidity;BMP_temperature;BMP_pressure;BME280_temperature;BME280_humidity;BME280_pressure;Samples;Min_cycle;Max_cycle;Signal;HPM_P1;HPM_P2
2022/06/06 00:01:19;;;;;;;3.08;2.20;;;;;;;21.49;42.86;99695.25;4462953;32;36615;-78
2022/06/06 00:04:05;;;;;;;4.93;2.28;;;;;;;21.58;42.53;99692.12;4464252;32;34231;-77
2022/06/06 00:06:56;;;;;;;6.47;2.70;;;;;;;21.28;43.78;99697.78;4480238;32;35034;-78
2022/06/06 00:09:43;;;;;;;3.92;2.47;;;;;;;21.12;44.36;99718.31;4466681;32;34605;-78
2022/06/06 00:12:30;;;;;;;3.53;2.37;;;;;;;20.89;44.60;99715.66;4467098;32;36402;-78
2022/06/06 00:15:17;;;;;;;2.72;2.05;;;;;;;21.39;43.17;99709.06;4473840;32;34627;-78
2022/06/06 00:18:04;;;;;;;3.15;2.05;;;;;;;21.27;43.51;99708.12;4480841;32;34327;-79
2022/06/06 00:20:52;;;;;;;4.18;2.30;;;;;;;21.36;43.35;99705.03;4476682;32;34748;-78
2022/06/06 00:23:39;;;;;;;4.15;2.37;;;;;;;21.25;44.17;99702.13;4461504;32;35956;-77
2022/06/06 00:26:30;;;;;;;5.25;2.50;;;;;;;20.64;45.48;99704.19;4463391;32;35727;-79
2022/06/06 00:29:19;;;;;;;3.20;2.40;;;;;;;20.64;45.07;99706.16;4460439;32;33914;-80
2022/06/06 00:35:11;;;;;;;2.85;2.20;;;;;;;20.50;46.11;99714.28;4465350;32;35073;-80
2022/06/06 00:37:58;;;;;;;4.45;2.22;;;;;;;20.32;45.80;99727.94;4464289;32;34730;-79
2022/06/06 00:40:50;;;;;;;5.03;2.50;;;;;;;20.47;45.79;99726.19;4464171;32;34268;-79
2022/06/06 00:43:36;;;;;;;3.85;2.58;;;;;;;20.32;46.68;99737.09;4460710;32;34577;-79
2022/06/06 00:46:26;;;;;;;3.17;2.12;;;;;;;20.37;46.41;99741.53;4462519;32;35954;-79
2022/06/06 00:49:25;;;;;;;4.93;2.58;;;;;;;20.59;45.84;99748.25;4463893;32;34737;-79
2022/06/06 00:52:16;;;;;;;3.65;2.37;;;;;;;20.87;45.11;99745.84;4461871;32;34127;-79
2022/06/06 00:55:10;;;;;;;3.33;2.70;;;;;;;21.12;44.58;99748.97;4453388;32;35615;-79
2022/06/06 00:58:07;;;;;;;5.87;2.50;;;;;;;21.12;44.48;99762.09;4464057;32;34560;-79
2022/06/06 01:00:54;;;;;;;4.35;2.55;;;;;;;20.94;45.52;99767.41;4462458;32;35567;-79
2022/06/06 01:03:41;;;;;;;4.00;2.70;;;;;;;20.55;46.29;99789.13;4463887;32;34154;-79
2022/06/06 01:06:31;;;;;;;4.87;2.50;;;;;;;20.84;46.06;99801.50;4464974;32;34603;-79
2022/06/06 01:09:19;;;;;;;3.40;2.58;;;;;;;21.24;44.63;99797.25;4466399;32;35985;-79
2022/06/06 01:12:12;;;;;;;3.40;2.83;;;;;;;21.22;45.14;99789.25;4464823;32;35283;-79
2022/06/06 01:15:02;;;;;;;4.22;2.80;;;;;;;21.38;44.55;99785.50;4461347;32;34124;-79
2022/06/06 01:17:58;;;;;;;5.10;2.75;;;;;;;21.35;44.63;99784.25;4460876;32;34629;-79
2022/06/06 01:21:18;;;;;;;4.10;2.65;;;;;;;20.42;47.31;99786.53;4463825;32;36487;-79
2022/06/06 01:24:41;;;;;;;3.30;2.53;;;;;;;20.94;46.39;99800.84;4472029;32;34877;-80
2022/06/06 01:27:46;;;;;;;3.53;2.42;;;;;;;20.85;46.34;99803.09;4463137;32;34389;-78
2022/06/06 01:30:39;;;;;;;3.67;2.75;;;;;;;20.42;47.96;99797.66;4464684;32;35066;-78
2022/06/06 01:33:25;;;;;;;4.68;2.80;;;;;;;20.27;48.06;99790.28;4462804;32;33689;-79
2022/06/06 01:36:12;;;;;;;5.10;3.10;;;;;;;20.18;48.56;99801.66;4462422;32;33524;-79
2022/06/06 01:39:03;;;;;;;3.33;2.65;;;;;;;19.06;51.26;99806.22;4470255;32;33034;-79
2022/06/06 01:41:55;;;;;;;4.22;2.75;;;;;;;19.21;51.81;99812.91;4463715;32;34575;-79
2022/06/06 01:44:46;;;;;;;4.50;2.70;;;;;;;19.73;50.67;99816.34;4462977;32;34969;-79
2022/06/06 01:47:46;;;;;;;6.97;2.97;;;;;;;20.31;49.24;99834.84;4470582;32;34627;-79
2022/06/06 01:50:36;;;;;;;4.32;2.87;;;;;;;20.08;49.18;99837.62;4450842;32;34737;-79
2022/06/06 01:53:24;;;;;;;4.30;2.80;;;;;;;19.73;50.35;99864.41;4464426;32;34480;-79
2022/06/06 01:56:16;;;;;;;3.58;2.85;;;;;;;19.70;50.76;99890.16;4462386;32;34930;-79
2022/06/06 01:59:03;;;;;;;4.10;2.70;;;;;;;19.57;50.55;99910.88;4449802;32;35518;-79
2022/06/06 02:01:50;;;;;;;4.00;2.85;;;;;;;19.72;50.27;99926.75;4462428;32;34584;-77
2022/06/06 02:04:38;;;;;;;4.93;2.92;;;;;;;19.42;51.32;99945.91;4463121;32;34540;-78
2022/06/06 02:07:25;;;;;;;3.85;2.87;;;;;;;19.94;49.73;99952.19;4461848;32;34988;-78
2022/06/06 02:10:12;;;;;;;3.62;2.58;;;;;;;20.25;50.09;99934.50;4463100;32;34718;-78
2022/06/06 02:12:59;;;;;;;4.03;2.55;;;;;;;20.24;50.27;99932.13;4463249;32;34153;-78
2022/06/06 02:15:47;;;;;;;4.97;2.80;;;;;;;20.68;49.60;99915.81;4467000;32;35369;-78
2022/06/06 02:18:34;;;;;;;4.68;3.22;;;;;;;20.70;48.28;99902.34;4469020;32;34777;-77
2022/06/06 02:21:20;;;;;;;4.57;2.70;;;;;;;21.11;47.91;99899.75;4479616;32;35625;-79
2022/06/06 02:24:06;;;;;;;3.42;2.75;;;;;;;21.12;48.18;99893.81;4458931;32;34950;-79
2022/06/06 02:26:53;;;;;;;3.12;2.70;;;;;;;20.54;50.38;99887.75;4463818;32;34702;-79
2022/06/06 02:29:39;;;;;;;3.55;2.70;;;;;;;21.18;49.41;99896.28;4463952;32;35545;-79
2022/06/06 02:32:27;;;;;;;3.35;2.87;;;;;;;20.67;50.54;99898.31;4464967;32;34665;-79
2022/06/06 02:35:24;;;;;;;4.65;2.60;;;;;;;19.69;52.18;99887.72;4464126;32;34199;-79
2022/06/06 02:38:12;;;;;;;4.62;2.70;;;;;;;20.37;50.82;99900.13;4461945;32;35618;-78
2022/06/06 02:41:07;;;;;;;3.80;2.70;;;;;;;20.18;50.94;99899.03;4463344;32;35967;-79
2022/06/06 02:43:56;;;;;;;4.10;2.78;;;;;;;19.23;53.72;99910.56;4465886;32;35557;-78
2022/06/06 02:46:42;;;;;;;4.22;2.92;;;;;;;18.07;57.07;99904.47;4463252;32;35063;-78
2022/06/06 02:49:30;;;;;;;4.53;3.05;;;;;;;18.70;55.93;99899.00;4463825;32;34654;-78
2022/06/06 02:52:17;;;;;;;6.32;3.30;;;;;;;19.01;54.68;99900.13;4463330;32;34904;-79
2022/06/06 02:55:05;;;;;;;5.00;3.20;;;;;;;18.85;55.01;99886.28;4463050;32;34699;-79
2022/06/06 02:57:52;;;;;;;4.90;3.17;;;;;;;18.29;56.85;99878.94;4451692;32;34297;-79
2022/06/06 03:00:42;;;;;;;5.40;3.00;;;;;;;18.94;54.55;99874.97;4463640;32;34673;-79
2022/06/06 03:03:31;;;;;;;4.37;2.65;;;;;;;19.85;52.36;99877.34;4464901;32;35650;-78
2022/06/06 03:06:28;;;;;;;3.08;2.75;;;;;;;20.28;50.42;99894.03;4463877;32;34621;-78
2022/06/06 03:09:33;;;;;;;4.05;3.40;;;;;;;20.27;50.43;99889.63;4464112;32;34706;-79
2022/06/06 03:12:34;;;;;;;4.22;2.80;;;;;;;19.49;53.38;99886.91;4461667;32;34590;-79
2022/06/06 03:15:29;;;;;;;5.23;3.40;;;;;;;19.84;53.33;99880.50;4465907;32;34610;-79
2022/06/06 03:21:40;;;;;;;4.30;2.90;;;;;;;20.52;51.50;99882.53;4464339;32;35791;-79
2022/06/06 03:24:51;;;;;;;5.43;3.20;;;;;;;20.88;50.41;99880.31;4464632;32;34291;-79
2022/06/06 03:27:50;;;;;;;4.90;2.83;;;;;;;20.79;50.75;99871.44;4462125;32;34612;-78
2022/06/06 03:31:08;;;;;;;5.07;3.17;;;;;;;20.61;51.60;99866.41;4464271;32;35130;-78
2022/06/06 03:34:32;;;;;;;4.03;2.90;;;;;;;20.15;53.44;99863.59;4464810;32;33819;-78
2022/06/06 03:37:24;;;;;;;4.95;3.08;;;;;;;20.27;53.58;99862.63;4465771;32;35547;-79
2022/06/06 03:40:40;;;;;;;4.43;3.20;;;;;;;20.38;52.85;99863.59;4464343;32;35894;-79
2022/06/06 03:43:49;;;;;;;5.03;2.78;;;;;;;20.44;53.29;99844.62;4464128;32;36056;-79
2022/06/06 03:46:55;;;;;;;6.32;3.25;;;;;;;20.33;53.22;99838.06;4447890;32;34153;-79
2022/06/06 03:49:59;;;;;;;5.68;3.60;;;;;;;19.81;55.61;99825.59;4463319;32;35694;-79
2022/06/06 03:52:58;;;;;;;7.75;3.87;;;;;;;19.44;56.03;99828.81;4463931;32;35928;-79
2022/06/06 03:55:57;;;;;;;7.10;3.58;;;;;;;18.98;57.28;99815.59;4464701;32;34614;-78
2022/06/06 03:58:45;;;;;;;4.55;3.20;;;;;;;18.53;58.09;99816.13;4464508;32;34061;-78
2022/06/06 04:01:32;;;;;;;7.03;3.40;;;;;;;18.46;57.85;99810.37;4462725;32;35469;-78
2022/06/06 04:04:19;;;;;;;4.20;3.20;;;;;;;19.34;55.46;99816.34;4464642;32;34814;-78
2022/06/06 04:07:05;;;;;;;5.30;3.58;;;;;;;19.42;55.12;99818.09;4465532;32;35177;-78
2022/06/06 04:09:52;;;;;;;5.93;3.35;;;;;;;18.58;59.58;99816.63;4465806;32;32894;-78
2022/06/06 04:12:54;;;;;;;5.53;3.03;;;;;;;19.46;56.09;99823.72;4461789;32;35410;-78
2022/06/06 04:16:05;;;;;;;5.72;3.00;;;;;;;19.39;55.60;99837.47;4462696;32;35916;-78
2022/06/06 04:19:25;;;;;;;3.67;3.10;;;;;;;19.63;55.41;99839.94;4464543;32;34779;-78
2022/06/06 04:22:23;;;;;;;5.28;3.00;;;;;;;19.45;56.05;99849.91;4465827;32;35572;-78
2022/06/06 04:25:35;;;;;;;8.80;3.12;;;;;;;18.63;59.92;99848.84;4464710;32;34226;-79
2022/06/06 04:28:31;;;;;;;5.57;3.08;;;;;;;18.56;60.13;99849.50;4465763;32;33887;-79
2022/06/06 04:31:48;;;;;;;4.03;3.00;;;;;;;18.88;59.07;99850.28;4462666;32;35459;-78
2022/06/06 04:34:45;;;;;;;4.15;3.10;;;;;;;19.09;58.63;99855.50;4462734;32;34096;-78
2022/06/06 04:37:51;;;;;;;6.12;3.17;;;;;;;19.75;57.65;99856.50;4464465;32;35473;-78
2022/06/06 04:41:01;;;;;;;4.68;3.40;;;;;;;19.92;58.28;99851.63;4464503;32;35052;-78
2022/06/06 04:44:09;;;;;;;6.00;3.55;;;;;;;20.32;56.83;99869.84;4465476;32;34609;-78
2022/06/06 04:47:06;;;;;;;4.93;2.90;;;;;;;20.26;56.79;99865.75;4464465;32;34425;-78
2022/06/06 04:49:54;;;;;;;4.10;3.00;;;;;;;19.95;58.68;99859.25;4452105;32;35523;-78
2022/06/06 04:52:46;;;;;;;4.60;3.40;;;;;;;20.31;56.46;99873.81;4463952;32;35034;-78
2022/06/06 04:55:33;;;;;;;4.20;3.25;;;;;;;20.31;56.04;99865.44;4464226;32;35117;-78
2022/06/06 04:58:20;;;;;;;4.25;3.50;;;;;;;20.32;57.54;99867.06;4464254;32;34765;-78
2022/06/06 05:01:12;;;;;;;4.67;3.43;;;;;;;20.64;56.68;99871.22;4462699;32;34521;-78
2022/06/06 05:04:00;;;;;;;6.05;3.58;;;;;;;20.79;56.83;99872.25;4456170;32;34985;-78
2022/06/06 05:07:05;;;;;;;4.62;3.35;;;;;;;20.85;56.94;99875.50;4463656;32;35507;-78
2022/06/06 05:10:37;;;;;;;6.15;3.85;;;;;;;20.52;56.32;99879.75;4463511;32;34229;-78
2022/06/06 05:14:11;;;;;;;5.80;3.80;;;;;;;19.85;58.85;99873.75;4455417;32;35323;-78
2022/06/06 05:17:20;;;;;;;4.80;3.65;;;;;;;19.34;61.93;99874.69;4465059;32;35708;-78
2022/06/06 05:20:42;;;;;;;6.72;4.00;;;;;;;18.83;65.64;99886.63;4458043;32;34420;-78
2022/06/06 05:23:50;;;;;;;5.55;3.72;;;;;;;18.74;66.11;99888.81;4383114;32;34804;-78
2022/06/06 05:26:59;;;;;;;5.03;3.87;;;;;;;19.44;65.31;99895.50;4464814;32;34230;-78
2022/06/06 05:30:08;;;;;;;5.32;3.97;;;;;;;18.86;68.63;99902.56;4452203;32;34617;-77
2022/06/06 05:33:07;;;;;;;5.25;3.87;;;;;;;19.91;65.84;99900.09;4464491;32;35450;-78
2022/06/06 05:36:39;;;;;;;5.95;4.60;;;;;;;19.64;67.65;99899.12;4462059;32;33829;-78
2022/06/06 05:39:49;;;;;;;6.85;4.30;;;;;;;18.81;72.00;99902.87;4401626;32;34792;-78
2022/06/06 05:43:05;;;;;;;5.62;4.10;;;;;;;18.79;72.17;99896.06;4441867;32;34556;-78
2022/06/06 05:46:21;;;;;;;7.22;4.75;;;;;;;19.40;70.63;99895.44;4451465;32;33315;-78
2022/06/06 05:49:44;;;;;;;7.55;4.90;;;;;;;19.46;70.90;99893.19;4461797;32;33813;-78
2022/06/06 05:52:50;;;;;;;7.30;3.90;;;;;;;19.73;70.40;99894.97;4464674;32;34289;-77
2022/06/06 05:55:49;;;;;;;5.95;4.20;;;;;;;19.55;69.82;99902.09;4464232;32;34675;-78
2022/06/06 05:58:55;;;;;;;7.07;4.75;;;;;;;19.56;71.93;99898.19;4463643;32;34682;-78
2022/06/06 06:02:11;;;;;;;6.37;4.50;;;;;;;19.46;71.86;99904.28;4462954;32;34196;-78
2022/06/06 06:05:04;;;;;;;5.93;4.35;;;;;;;19.94;70.25;99902.13;4464097;32;35583;-82
2022/06/06 06:08:16;;;;;;;7.53;4.53;;;;;;;19.92;70.85;99902.50;4468410;32;34905;-81
2022/06/06 06:11:30;;;;;;;7.30;3.92;;;;;;;19.73;72.33;99906.09;4469515;32;35546;-81
2022/06/06 06:14:31;;;;;;;7.10;4.40;;;;;;;19.85;69.95;99901.56;4468762;32;34250;-81
2022/06/06 06:17:28;;;;;;;5.82;3.97;;;;;;;20.82;66.99;99896.56;4469337;32;33613;-80
2022/06/06 06:20:18;;;;;;;5.72;3.50;;;;;;;20.85;63.90;99903.34;4459771;32;35007;-81
2022/06/06 06:23:20;;;;;;;6.10;3.50;;;;;;;21.35;59.44;99904.09;4457340;32;34919;-82
2022/06/06 06:26:14;;;;;;;6.07;3.33;;;;;;;21.44;58.48;99913.00;4454835;32;34377;-81
2022/06/06 06:29:03;;;;;;;7.03;3.70;;;;;;;21.36;59.02;99918.84;4446434;32;34694;-81
2022/06/06 06:32:22;;;;;;;6.43;3.83;;;;;;;21.18;58.93;99919.38;4448419;32;35035;-81
2022/06/06 06:35:16;;;;;;;5.55;3.60;;;;;;;21.20;59.09;99930.94;4455700;32;35645;-81
2022/06/06 06:38:26;;;;;;;4.78;3.70;;;;;;;21.62;57.09;99923.59;4459768;32;34230;-80
2022/06/06 06:41:29;;;;;;;6.37;4.07;;;;;;;21.42;58.31;99926.50;4461326;32;34694;-81
2022/06/06 06:44:26;;;;;;;6.35;3.95;;;;;;;21.46;60.87;99919.00;4442693;32;34940;-80
2022/06/06 06:47:28;;;;;;;7.25;4.45;;;;;;;21.29;61.50;99919.53;4451332;32;35160;-81
2022/06/06 06:50:31;;;;;;;5.68;4.10;;;;;;;21.35;61.41;99909.66;4451801;32;34521;-79
2022/06/06 06:53:41;;;;;;;5.95;4.43;;;;;;;21.16;64.10;99923.72;4450011;32;34688;-81
2022/06/06 06:56:36;;;;;;;5.07;4.32;;;;;;;21.22;62.95;99911.88;4439526;32;34930;-81
2022/06/06 06:59:43;;;;;;;5.93;4.07;;;;;;;21.24;64.20;99909.50;4451449;32;34603;-79
2022/06/06 07:10:08;;;;;;;7.03;4.00;;;;;;;21.51;60.69;99918.66;4449851;32;35372;-82
2022/06/06 07:13:05;;;;;;;;;;;;;;;22.24;59.99;99915.56;4459771;32;35490;-82
2022/06/06 07:16:23;;;;;;;8.18;5.72;;;;;;;22.62;59.67;99919.09;4454245;32;34202;-81
2022/06/06 07:19:20;;;;;;;37.33;19.73;;;;;;;22.32;55.58;99917.25;4448721;32;34653;-80
2022/06/06 07:22:11;;;;;;;7.68;5.03;;;;;;;22.28;54.23;99915.59;4447460;32;34921;-80
2022/06/06 07:24:58;;;;;;;7.90;5.37;;;;;;;22.46;55.11;99919.38;4467617;32;35638;-79
2022/06/06 07:27:50;;;;;;;4.62;3.60;;;;;;;22.63;53.63;99917.94;4475794;32;34694;-80
2022/06/06 07:30:43;;;;;;;5.82;4.43;;;;;;;21.91;55.59;99922.75;4480469;32;35537;-79
2022/06/06 07:33:49;;;;;;;10.18;6.22;;;;;;;22.49;54.28;99926.97;4466553;32;35904;-80
2022/06/06 07:37:05;;;;;;;6.70;3.90;;;;;;;23.22;52.14;99917.97;4463128;32;34948;-80
2022/06/06 07:40:14;;;;;;;5.30;3.12;;;;;;;22.74;50.79;99927.22;4468313;32;34170;-78
2022/06/06 07:43:46;;;;;;;5.22;3.58;;;;;;;22.79;50.34;99921.25;4486243;32;34660;-80
2022/06/06 07:47:06;;;;;;;4.37;3.20;;;;;;;23.33;48.33;99928.03;4472045;32;36060;-79
2022/06/06 07:50:12;;;;;;;4.60;3.00;;;;;;;22.72;46.02;99931.56;4456092;32;34602;-79
2022/06/06 07:53:14;;;;;;;4.78;3.35;;;;;;;23.76;45.83;99931.09;4470307;32;35152;-79
2022/06/06 07:56:19;;;;;;;6.25;3.37;;;;;;;23.20;45.74;99923.97;4482928;32;34595;-79
2022/06/06 07:59:32;;;;;;;;;;;;;;;23.35;44.51;99917.25;4480623;32;35087;-79
2022/06/06 08:02:23;;;;;;;4.47;3.22;;;;;;;23.82;43.47;99923.09;4473568;32;35675;-78
2022/06/06 08:08:41;;;;;;;3.60;3.00;;;;;;;23.61;42.91;99929.38;4467922;32;34688;-78
2022/06/06 08:11:53;;;;;;;4.70;2.85;;;;;;;23.79;42.63;99935.91;4474822;32;35089;-77
2022/06/06 08:15:10;;;;;;;4.40;2.85;;;;;;;23.40;43.00;99929.28;4463842;32;34707;-77
2022/06/06 08:18:22;;;;;;;4.90;3.00;;;;;;;23.55;42.46;99937.34;4486864;32;35383;-77
2022/06/06 08:21:21;;;;;;;4.00;3.60;;;;;;;23.89;42.50;99933.53;4487118;32;34871;-78
2022/06/06 08:24:23;;;;;;;5.37;3.70;;;;;;;23.43;46.48;99929.31;4476536;32;35114;-78
2022/06/06 08:27:31;;;;;;;6.65;4.18;;;;;;;24.14;46.98;99933.63;4481427;32;34823;-78
2022/06/06 08:30:24;;;;;;;5.00;3.60;;;;;;;23.06;50.00;99941.44;4471439;32;34337;-78
2022/06/06 08:33:13;;;;;;;4.97;4.18;;;;;;;23.17;48.54;99944.31;4446956;32;34665;-78
2022/06/06 08:36:33;;;;;;;6.03;3.45;;;;;;;23.39;48.15;99950.84;4459581;32;35920;-78
2022/06/06 08:46:21;;;;;;;7.22;4.32;;;;;;;23.78;47.55;99939.87;4455859;32;34602;-77
2022/06/06 08:53:02;;;;;;;8.30;4.50;;;;;;;23.48;48.08;99939.28;4462307;32;35452;-78
2022/06/06 08:56:00;;;;;;;5.45;4.05;;;;;;;23.46;47.63;99942.50;4464432;32;34236;-78
2022/06/06 09:02:14;;;;;;;8.82;5.20;;;;;;;23.17;49.54;99938.72;4470482;32;36000;-78
2022/06/06 09:05:18;;;;;;;6.05;4.55;;;;;;;23.18;49.83;99925.56;4461528;32;35431;-77
2022/06/06 09:08:47;;;;;;;5.68;4.72;;;;;;;23.37;50.39;99930.88;4462535;32;34192;-77
2022/06/06 09:12:03;;;;;;;7.40;4.72;;;;;;;23.90;49.97;99935.91;4439613;32;34700;-78
2022/06/06 09:15:16;;;;;;;12.37;5.10;;;;;;;23.69;49.38;99939.41;4473794;32;36161;-77
2022/06/06 09:18:28;;;;;;;7.45;4.90;;;;;;;23.45;50.59;99931.69;4472954;32;35556;-78
2022/06/06 09:21:40;;;;;;;6.37;4.90;;;;;;;23.77;50.19;99931.91;4470908;32;35126;-78
2022/06/06 09:24:42;;;;;;;7.20;4.78;;;;;;;24.78;46.02;99927.31;4455082;32;34770;-78
2022/06/06 09:27:54;;;;;;;6.62;5.18;;;;;;;24.86;46.16;99917.72;4457640;32;35218;-78
2022/06/06 09:31:03;;;;;;;6.90;4.78;;;;;;;25.66;43.94;99910.75;4468331;32;35138;-78
2022/06/06 09:41:10;;;;;;;8.88;5.70;;;;;;;25.29;41.87;99895.25;4451281;32;35444;-77
2022/06/06 09:44:29;;;;;;;7.37;5.53;;;;;;;25.87;42.07;99904.25;4454197;32;35471;-77
2022/06/06 09:47:42;;;;;;;5.60;4.87;;;;;;;25.91;41.28;99897.44;4470008;32;34388;-77
2022/06/06 09:50:39;;;;;;;6.25;4.87;;;;;;;25.88;41.07;99898.25;4471072;32;34689;-77
2022/06/06 10:00:49;;;;;;;5.20;4.30;;;;;;;25.45;38.25;99881.56;4470047;32;34249;-76
2022/06/06 10:04:04;;;;;;;6.75;5.22;;;;;;;25.70;38.88;99880.66;4449897;32;34731;-76
2022/06/06 10:07:11;;;;;;;5.60;4.60;;;;;;;26.05;37.49;99890.16;4450756;32;35086;-76
2022/06/06 10:10:19;;;;;;;5.30;4.25;;;;;;;25.48;37.14;99879.97;4455011;32;34672;-76
2022/06/06 10:13:21;;;;;;;6.50;4.65;;;;;;;26.24;36.99;99876.38;4453421;32;34336;-77
2022/06/06 10:19:59;;;;;;;6.05;4.50;;;;;;;26.35;36.88;99875.47;4454103;32;36108;-77
2022/06/06 10:22:57;;;;;;;;;;;;;;;27.34;34.21;99870.97;4451686;32;35649;-76
2022/06/06 10:26:09;;;;;;;5.18;3.58;;;;;;;27.32;34.91;99864.16;4456222;32;34218;-77
2022/06/06 10:33:18;;;;;;;4.22;3.20;;;;;;;25.32;34.09;99860.78;4469502;32;34975;-77
2022/06/06 10:36:32;;;;;;;4.10;3.20;;;;;;;25.33;36.16;99867.97;4469724;32;35729;-76
2022/06/06 10:40:25;;;;;;;4.53;3.62;;;;;;;26.34;33.81;99869.06;4467760;32;34417;-77
2022/06/06 10:43:47;;;;;;;4.80;3.85;;;;;;;26.57;33.08;99865.69;4405792;32;34584;-77
2022/06/06 10:46:47;;;;;;;4.05;3.25;;;;;;;26.42;34.58;99864.19;4467301;32;34541;-77
2022/06/06 10:49:51;;;;;;;5.07;4.40;;;;;;;27.71;31.40;99851.63;4468181;32;34674;-77
2022/06/06 10:56:25;;;;;;;7.45;4.95;;;;;;;27.96;30.53;99848.50;4469278;32;34637;-77
2022/06/06 10:59:37;;;;;;;5.53;4.03;;;;;;;27.57;32.02;99841.34;4457354;32;34980;-77
2022/06/06 11:03:00;;;;;;;5.20;4.25;;;;;;;28.01;33.05;99836.78;4468515;32;35506;-78
2022/06/06 11:06:34;;;;;;;4.12;3.70;;;;;;;26.88;33.01;99838.50;4468751;32;34131;-76
2022/06/06 11:09:38;;;;;;;4.50;3.90;;;;;;;27.63;32.41;99836.06;4467293;32;34640;-75
2022/06/06 11:12:50;;;;;;;4.25;3.85;;;;;;;28.40;31.97;99833.31;4465329;32;35001;-76
2022/06/06 11:16:01;;;;;;;4.85;4.00;;;;;;;26.75;33.01;99831.81;4462534;32;35110;-76
2022/06/06 11:22:31;;;;;;;4.55;3.97;;;;;;;27.58;32.56;99826.88;4463081;32;34629;-77
2022/06/06 11:28:59;;;;;;;5.22;4.22;;;;;;;26.69;34.48;99830.66;4459337;32;34713;-76
2022/06/06 11:32:07;;;;;;;5.80;3.75;;;;;;;27.83;31.40;99819.31;4462116;32;34183;-77
2022/06/06 11:38:29;;;;;;;5.62;3.87;;;;;;;27.68;32.46;99822.31;4464236;32;35036;-77
2022/06/06 11:45:02;;;;;;;9.38;4.18;;;;;;;27.69;32.55;99815.47;4465456;32;34362;-79
2022/06/06 11:47:58;;;;;;;4.10;3.70;;;;;;;28.20;32.73;99809.91;4458348;32;35224;-77
2022/06/06 11:51:03;;;;;;;4.75;4.07;;;;;;;28.60;30.61;99812.88;4465000;32;34684;-78
2022/06/06 11:54:06;;;;;;;6.75;4.22;;;;;;;28.36;30.54;99812.84;4464552;32;34548;-76
2022/06/06 11:57:36;;;;;;;4.72;4.07;;;;;;;28.34;29.90;99809.66;4465434;32;34154;-76
2022/06/06 12:00:36;;;;;;;4.87;3.90;;;;;;;27.40;30.88;99808.63;4465814;32;35429;-75
2022/06/06 12:04:04;;;;;;;4.47;3.60;;;;;;;26.95;31.92;99803.09;4462911;32;35623;-76
2022/06/06 12:06:59;;;;;;;5.53;3.85;;;;;;;27.78;30.62;99801.66;4464723;32;34667;-75
2022/06/06 12:09:54;;;;;;;6.18;4.10;;;;;;;27.36;32.37;99792.59;4465981;32;35598;-76
2022/06/06 12:13:06;;;;;;;5.80;4.05;;;;;;;27.68;30.44;99790.56;4464229;32;35134;-76
2022/06/06 12:16:18;;;;;;;4.60;3.85;;;;;;;27.68;31.93;99782.91;4446398;32;233744;-76
2022/06/06 12:19:11;;;;;;;4.72;3.80;;;;;;;27.43;30.87;99790.91;4466017;32;34605;-76
2022/06/06 12:22:16;;;;;;;4.78;3.72;;;;;;;28.49;29.62;99782.09;4465170;32;33888;-75
2022/06/06 12:25:31;;;;;;;7.30;4.50;;;;;;;28.22;30.18;99780.09;4458189;32;34770;-76
2022/06/06 12:28:39;;;;;;;5.53;4.18;;;;;;;28.89;30.08;99776.50;4461733;32;35702;-75
2022/06/06 12:31:39;;;;;;;4.30;3.90;;;;;;;28.72;29.61;99771.97;4467310;32;34599;-73
2022/06/06 12:34:31;;;;;;;5.07;3.85;;;;;;;28.13;30.13;99776.22;4468462;32;35103;-75
2022/06/06 12:37:26;;;;;;;5.50;3.87;;;;;;;28.72;29.42;99777.63;4465851;32;33345;-75
2022/06/06 12:41:04;;;;;;;5.28;4.28;;;;;;;28.79;28.91;99767.00;4455410;32;34902;-76
2022/06/06 12:43:59;;;;;;;5.18;4.00;;;;;;;28.66;29.08;99764.06;4450816;32;35340;-75
2022/06/06 12:47:12;;;;;;;4.57;3.70;;;;;;;28.63;29.65;99756.47;4465057;32;34025;-74
2022/06/06 12:50:20;;;;;;;5.12;3.90;;;;;;;28.39;30.92;99766.13;4464658;32;35475;-75
2022/06/06 12:53:30;;;;;;;5.20;4.32;;;;;;;28.55;30.73;99763.44;4463419;32;36023;-76
2022/06/06 12:56:37;;;;;;;5.03;4.03;;;;;;;28.40;28.80;99768.50;4463964;32;35250;-74
2022/06/06 12:59:47;;;;;;;6.70;3.60;;;;;;;27.80;30.83;99761.84;4465175;32;34804;-75
2022/06/06 13:02:53;;;;;;;5.50;3.97;;;;;;;28.12;30.19;99761.34;4462029;32;35413;-75
2022/06/06 13:06:04;;;;;;;4.43;3.87;;;;;;;27.08;31.12;99754.34;4462079;32;34638;-76
2022/06/06 13:09:22;;;;;;;4.73;4.10;;;;;;;27.31;31.44;99759.28;4464365;32;35414;-78
2022/06/06 13:12:30;;;;;;;5.93;3.70;;;;;;;27.63;29.80;99757.25;4464822;32;34900;-78
2022/06/06 13:15:31;;;;;;;5.37;3.80;;;;;;;28.11;30.12;99751.28;4463874;32;34267;-77
2022/06/06 13:18:30;;;;;;;5.37;4.28;;;;;;;27.44;30.74;99744.69;4458819;32;35077;-79
2022/06/06 13:21:45;;;;;;;7.47;4.50;;;;;;;27.01;31.19;99737.56;4462577;32;34627;-77
2022/06/06 13:24:53;;;;;;;4.62;3.58;;;;;;;27.91;30.36;99741.97;4460964;32;35164;-78
2022/06/06 13:31:04;;;;;;;4.57;3.62;;;;;;;27.35;30.47;99751.63;4463405;32;34356;-77
2022/06/06 13:34:40;;;;;;;4.55;3.95;;;;;;;28.01;29.19;99738.22;4448397;32;34377;-77
2022/06/06 13:37:52;;;;;;;4.03;3.62;;;;;;;29.06;29.79;99735.91;4451214;32;34115;-76
2022/06/06 13:40:55;;;;;;;5.35;3.92;;;;;;;28.59;28.56;99744.44;4460971;32;34723;-78
2022/06/06 13:44:01;;;;;;;4.68;3.75;;;;;;;28.26;28.87;99743.38;4463508;32;34932;-79
2022/06/06 13:47:03;;;;;;;4.45;3.50;;;;;;;27.24;29.34;99728.47;4462006;32;34830;-77
2022/06/06 13:50:21;;;;;;;4.15;3.50;;;;;;;27.84;28.76;99739.28;4462952;32;35847;-76
2022/06/06 13:56:36;;;;;;;5.20;4.00;;;;;;;27.60;30.33;99733.56;4458396;32;35899;-79
2022/06/06 13:59:54;;;;;;;5.30;4.47;;;;;;;28.61;28.53;99730.72;4458150;32;34262;-78
2022/06/06 14:02:54;;;;;;;7.07;5.47;;;;;;;28.05;32.69;99732.50;4462489;32;34144;-77
2022/06/06 14:06:14;;;;;;;5.93;4.90;;;;;;;27.50;35.02;99723.28;4463552;32;34584;-76
2022/06/06 14:09:08;;;;;;;5.22;4.72;;;;;;;27.92;35.57;99732.28;4462628;32;34866;-78
2022/06/06 14:12:21;;;;;;;6.22;4.93;;;;;;;26.79;37.02;99737.03;4454210;32;35122;-78
2022/06/06 14:15:17;;;;;;;7.68;4.40;;;;;;;27.75;35.05;99739.78;4463259;32;34074;-76
2022/06/06 14:18:08;;;;;;;5.22;4.72;;;;;;;28.04;33.49;99728.91;4464970;32;34286;-77
2022/06/06 14:21:27;;;;;;;6.12;4.85;;;;;;;27.44;34.06;99730.59;4460898;32;34626;-76
2022/06/06 14:24:20;;;;;;;5.18;4.30;;;;;;;27.08;34.25;99728.22;4461540;32;34273;-74
2022/06/06 14:27:10;;;;;;;6.53;4.70;;;;;;;28.03;34.44;99724.47;4436098;32;35407;-75
2022/06/06 14:30:15;;;;;;;6.03;4.87;;;;;;;27.89;35.38;99727.53;4438920;32;34571;-75
2022/06/06 14:33:21;;;;;;;5.05;4.43;;;;;;;28.02;33.39;99732.13;4444783;32;35653;-75
2022/06/06 14:36:27;;;;;;;7.85;5.32;;;;;;;27.57;35.31;99725.97;4435553;32;34442;-75
2022/06/06 14:39:27;;;;;;;;;;;;;;;27.96;34.47;99724.59;4449528;32;33607;-75
2022/06/06 14:42:29;;;;;;;5.60;5.03;;;;;;;27.96;34.70;99722.56;4439007;32;35554;-75
2022/06/06 14:45:28;;;;;;;6.25;5.25;;;;;;;28.20;34.10;99720.53;4439221;32;35989;-75
2022/06/06 14:48:33;;;;;;;6.25;5.45;;;;;;;28.41;35.21;99727.03;4435405;32;34740;-77
2022/06/06 14:54:39;;;;;;;6.25;5.22;;;;;;;27.92;36.20;99726.66;4449830;32;35976;-76
2022/06/06 14:57:30;;;;;;;5.05;4.55;;;;;;;27.80;35.06;99714.00;4444496;32;35902;-77
2022/06/06 15:00:31;;;;;;;6.30;4.72;;;;;;;28.08;35.70;99717.56;4459071;32;34687;-77
2022/06/06 15:06:30;;;;;;;6.00;5.20;;;;;;;27.99;35.14;99712.47;4437936;32;35186;-77
2022/06/06 15:09:19;;;;;;;6.00;5.20;;;;;;;28.04;35.78;99714.81;4456908;32;34589;-78
2022/06/06 15:12:23;;;;;;;5.87;4.97;;;;;;;28.06;35.95;99706.72;4451333;32;35534;-77
2022/06/06 15:15:14;;;;;;;5.25;4.75;;;;;;;28.69;34.35;99706.00;4450586;32;33849;-78
2022/06/06 15:18:06;;;;;;;5.15;4.62;;;;;;;27.45;35.32;99698.44;4444382;32;34656;-78
2022/06/06 15:20:56;;;;;;;6.10;4.95;;;;;;;28.62;33.91;99700.50;4429145;32;34864;-78
2022/06/06 15:27:34;;;;;;;6.78;4.75;;;;;;;28.01;33.84;99690.34;4435878;32;33959;-77
2022/06/06 15:30:47;;;;;;;7.25;4.85;;;;;;;28.16;34.22;99697.28;4447472;32;34623;-78
2022/06/06 15:33:53;;;;;;;5.35;4.85;;;;;;;28.56;33.52;99691.75;4449129;32;36134;-77
2022/06/06 15:36:53;;;;;;;5.40;4.90;;;;;;;28.49;32.42;99691.91;4447215;32;34669;-78
2022/06/06 15:39:55;;;;;;;7.68;5.07;;;;;;;27.94;32.54;99698.88;4449978;32;34782;-76
2022/06/06 15:42:54;;;;;;;5.53;4.97;;;;;;;28.24;30.97;99695.94;4451287;32;35527;-76